Time,TemperatureF,DewpointF,PressureIn,WindDirection,WindDirectionDegrees,WindSpeedMPH,WindSpeedGustMPH,Humidity,HourlyPrecipIn,Conditions,Clouds,dailyrainin,SoftwareType,DateUTC
2013-10-07 00:14:00,52.0,-99.9,-100.00,North,-999,-999.0,-999.0,-999,0.01,,,0.11,,2013-10-07 04:14:00,
2013-10-07 00:25:00,52.0,-99.9,-100.00,North,-999,-999.0,-999.0,-999,0.01,,,0.11,,2013-10-07 04:25:00,
2013-10-07 00:30:00,52.0,-99.9,-100.00,North,-999,-999.0,-999.0,-999,0.00,,,0.11,,2013-10-07 04:30:00,
2013-10-07 01:13:00,52.0,-99.9,-100.00,North,-999,-999.0,-999.0,-999,0.00,,,0.11,,2013-10-07 05:13:00,
2013-10-07 01:23:00,52.0,-99.9,-100.00,North,-999,-999.0,-999.0,-999,0.00,,,0.11,,2013-10-07 05:23:00,
2013-10-07 01:30:00,52.0,-99.9,-100.00,North,-999,-999.0,-999.0,-999,0.01,,,0.12,,2013-10-07 05:30:00,
2013-10-07 02:12:00,52.0,-99.9,-100.00,North,-999,-999.0,-999.0,-999,0.01,,,0.12,,2013-10-07 06:12:00,
2013-10-07 02:22:00,52.0,-99.9,-100.00,North,-999,-999.0,-999.0,-999,0.01,,,0.12,,2013-10-07 06:22:00,
2013-10-07 02:30:00,53.0,-99.9,-100.00,North,-999,-999.0,-999.0,-999,0.01,,,0.13,,2013-10-07 06:30:00,
2013-10-07 03:12:00,53.0,-99.9,-100.00,North,-999,-999.0,-999.0,-999,0.01,,,0.13,,2013-10-07 07:12:00,
2013-10-07 03:22:00,53.0,-99.9,-100.00,North,-999,-999.0,-999.0,-999,0.01,,,0.13,,2013-10-07 07:22:00,
2013-10-07 03:30:00,53.0,-99.9,-100.00,North,-999,-999.0,-999.0,-999,0.01,,,0.14,,2013-10-07 07:30:00,
2013-10-07 04:12:00,53.0,-99.9,-100.00,North,-999,-999.0,-999.0,-999,0.01,,,0.14,,2013-10-07 08:12:00,
2013-10-07 04:22:00,53.0,-99.9,-100.00,North,-999,-999.0,-999.0,-999,0.01,,,0.14,,2013-10-07 08:22:00,
2013-10-07 04:30:00,53.0,-99.9,-100.00,North,-999,-999.0,-999.0,-999,0.01,,,0.15,,2013-10-07 08:30:00,
2013-10-07 05:11:00,53.0,-99.9,-100.00,North,-999,-999.0,-999.0,-999,0.01,,,0.15,,2013-10-07 09:11:00,
2013-10-07 05:22:00,53.0,-99.9,-100.00,North,-999,-999.0,-999.0,-999,0.01,,,0.15,,2013-10-07 09:22:00,
2013-10-07 05:30:00,53.0,-99.9,-100.00,North,-999,-999.0,-999.0,-999,0.00,,,0.15,,2013-10-07 09:30:00,
2013-10-07 06:13:00,53.0,-99.9,-100.00,North,-999,-999.0,-999.0,-999,0.00,,,0.15,,2013-10-07 10:13:00,
2013-10-07 06:23:00,53.0,-99.9,-100.00,North,-999,-999.0,-999.0,-999,0.00,,,0.15,,2013-10-07 10:23:00,
2013-10-07 06:30:00,54.0,-99.9,-100.00,North,-999,-999.0,-999.0,-999,0.00,,,0.15,,2013-10-07 10:30:00,
2013-10-07 07:12:00,54.0,-99.9,-100.00,North,-999,-999.0,-999.0,-999,0.00,,,0.15,,2013-10-07 11:12:00,
2013-10-07 07:22:00,54.0,-99.9,-100.00,North,-999,-999.0,-999.0,-999,0.00,,,0.15,,2013-10-07 11:22:00,
2013-10-07 07:30:00,54.0,-99.9,-100.00,North,-999,-999.0,-999.0,-999,0.01,,,0.16,,2013-10-07 11:30:00,
2013-10-07 08:12:00,54.0,-99.9,-100.00,North,-999,-999.0,-999.0,-999,0.01,,,0.16,,2013-10-07 12:12:00,
2013-10-07 08:22:00,54.0,-99.9,-100.00,North,-999,-999.0,-999.0,-999,0.01,,,0.16,,2013-10-07 12:22:00,
2013-10-07 08:30:00,55.0,-99.9,-100.00,North,-999,-999.0,-999.0,-999,0.00,,,0.16,,2013-10-07 12:30:00,
2013-10-07 09:11:00,55.0,-99.9,-100.00,North,-999,-999.0,-999.0,-999,0.00,,,0.16,,2013-10-07 13:11:00,
2013-10-07 09:22:00,55.0,-99.9,-100.00,North,-999,-999.0,-999.0,-999,0.00,,,0.16,,2013-10-07 13:22:00,
2013-10-07 09:30:00,56.0,-99.9,-100.00,North,-999,-999.0,-999.0,-999,0.00,,,0.15,,2013-10-07 13:30:00,
2013-10-07 10:11:00,56.0,-99.9,-100.00,North,-999,-999.0,-999.0,-999,0.00,,,0.15,,2013-10-07 14:11:00,
2013-10-07 10:23:00,56.0,-99.9,-100.00,North,-999,-999.0,-999.0,-999,0.00,,,0.15,,2013-10-07 14:23:00,
2013-10-07 10:30:00,57.0,-99.9,-100.00,North,-999,-999.0,-999.0,-999,0.00,,,0.15,,2013-10-07 14:30:00,
2013-10-07 11:11:00,57.0,-99.9,-100.00,North,-999,-999.0,-999.0,-999,0.00,,,0.15,,2013-10-07 15:11:00,
2013-10-07 11:22:00,57.0,-99.9,-100.00,North,-999,-999.0,-999.0,-999,0.00,,,0.15,,2013-10-07 15:22:00,
2013-10-07 11:30:00,59.0,-99.9,-100.00,North,-999,-999.0,-999.0,-999,0.08,,,0.21,,2013-10-07 15:30:00,
2013-10-07 12:13:00,59.0,-99.9,-100.00,North,-999,-999.0,-999.0,-999,0.08,,,0.21,,2013-10-07 16:13:00,
2013-10-07 12:23:00,59.0,-99.9,-100.00,North,-999,-999.0,-999.0,-999,0.08,,,0.21,,2013-10-07 16:23:00,
2013-10-07 12:30:00,60.0,-99.9,-100.00,North,-999,-999.0,-999.0,-999,0.01,,,0.22,,2013-10-07 16:30:00,
2013-10-07 13:12:00,60.0,-99.9,-100.00,North,-999,-999.0,-999.0,-999,0.01,,,0.22,,2013-10-07 17:12:00,
2013-10-07 13:23:00,60.0,-99.9,-100.00,North,-999,-999.0,-999.0,-999,0.01,,,0.22,,2013-10-07 17:23:00,
2013-10-07 13:30:00,60.0,-99.9,-100.00,North,-999,-999.0,-999.0,-999,0.00,,,0.22,,2013-10-07 17:30:00,
2013-10-07 14:12:00,60.0,-99.9,-100.00,North,-999,-999.0,-999.0,-999,0.00,,,0.22,,2013-10-07 18:12:00,
2013-10-07 14:22:00,60.0,-99.9,-100.00,North,-999,-999.0,-999.0,-999,0.00,,,0.22,,2013-10-07 18:22:00,
2013-10-07 14:30:00,71.0,-99.9,-100.00,North,-999,-999.0,-999.0,-999,0.00,,,0.20,,2013-10-07 18:30:00,
2013-10-07 15:12:00,71.0,-99.9,-100.00,North,-999,-999.0,-999.0,-999,0.00,,,0.20,,2013-10-07 19:12:00,
2013-10-07 15:22:00,71.0,-99.9,-100.00,North,-999,-999.0,-999.0,-999,0.00,,,0.20,,2013-10-07 19:22:00,
2013-10-07 15:30:00,73.0,-99.9,-100.00,North,-999,-999.0,-999.0,-999,0.00,,,0.20,,2013-10-07 19:30:00,
2013-10-07 16:12:00,73.0,-99.9,-100.00,North,-999,-999.0,-999.0,-999,0.00,,,0.20,,2013-10-07 20:12:00,
2013-10-07 16:22:00,73.0,-99.9,-100.00,North,-999,-999.0,-999.0,-999,0.00,,,0.20,,2013-10-07 20:22:00,
2013-10-07 16:30:00,72.0,-99.9,-100.00,North,-999,-999.0,-999.0,-999,0.00,,,0.19,,2013-10-07 20:30:00,
2013-10-07 17:12:00,72.0,-99.9,-100.00,North,-999,-999.0,-999.0,-999,0.00,,,0.19,,2013-10-07 21:12:00,
2013-10-07 17:23:00,72.0,-99.9,-100.00,North,-999,-999.0,-999.0,-999,0.00,,,0.19,,2013-10-07 21:23:00,
2013-10-07 17:30:00,73.0,-99.9,-100.00,North,-999,-999.0,-999.0,-999,0.00,,,0.19,,2013-10-07 21:30:00,
2013-10-07 18:14:00,73.0,-99.9,-100.00,North,-999,-999.0,-999.0,-999,0.00,,,0.19,,2013-10-07 22:14:00,
2013-10-07 18:24:00,73.0,-99.9,-100.00,North,-999,-999.0,-999.0,-999,0.00,,,0.19,,2013-10-07 22:24:00,
2013-10-07 18:30:00,68.0,-99.9,-100.00,North,-999,-999.0,-999.0,-999,0.06,,,0.24,,2013-10-07 22:30:00,
2013-10-07 19:12:00,68.0,-99.9,-100.00,North,-999,-999.0,-999.0,-999,0.06,,,0.24,,2013-10-07 23:12:00,
2013-10-07 19:23:00,68.0,-99.9,-100.00,North,-999,-999.0,-999.0,-999,0.06,,,0.24,,2013-10-07 23:23:00,
2013-10-07 19:30:00,64.0,-99.9,-100.00,North,-999,-999.0,-999.0,-999,0.54,,,0.78,,2013-10-07 23:30:00,
2013-10-07 20:12:00,64.0,-99.9,-100.00,North,-999,-999.0,-999.0,-999,0.54,,,0.78,,2013-10-08 00:12:00,
2013-10-07 20:22:00,64.0,-99.9,-100.00,North,-999,-999.0,-999.0,-999,0.54,,,0.78,,2013-10-08 00:22:00,
2013-10-07 20:30:00,63.0,-99.9,-100.00,North,-999,-999.0,-999.0,-999,0.04,,,0.81,,2013-10-08 00:30:00,
2013-10-07 21:12:00,63.0,-99.9,-100.00,North,-999,-999.0,-999.0,-999,0.04,,,0.81,,2013-10-08 01:12:00,
2013-10-07 21:22:00,63.0,-99.9,-100.00,North,-999,-999.0,-999.0,-999,0.04,,,0.81,,2013-10-08 01:22:00,
2013-10-07 21:30:00,59.0,-99.9,-100.00,North,-999,-999.0,-999.0,-999,0.00,,,0.80,,2013-10-08 01:30:00,
2013-10-07 22:12:00,59.0,-99.9,-100.00,North,-999,-999.0,-999.0,-999,0.00,,,0.80,,2013-10-08 02:12:00,
2013-10-07 22:22:00,59.0,-99.9,-100.00,North,-999,-999.0,-999.0,-999,0.00,,,0.80,,2013-10-08 02:22:00,
2013-10-07 22:30:00,57.0,-99.9,-100.00,North,-999,-999.0,-999.0,-999,0.01,,,0.80,,2013-10-08 02:30:00,
2013-10-07 23:12:00,57.0,-99.9,-100.00,North,-999,-999.0,-999.0,-999,0.01,,,0.80,,2013-10-08 03:12:00,
2013-10-07 23:22:00,57.0,-99.9,-100.00,North,-999,-999.0,-999.0,-999,0.01,,,0.80,,2013-10-08 03:22:00,
2013-10-07 23:30:00,56.0,-99.9,-100.00,North,-999,-999.0,-999.0,-999,0.00,,,0.79,,2013-10-08 03:30:00,